sensor_id;sensor_type;location;lat;lon;timestamp;pressure;altitude;pressure_sealevel;temperature;humidity
58843;BME280;44614;54.356;10.100;2023-08-08T00:02:04;100304.59;;;12.87;86.59
58843;BME280;44614;54.356;10.100;2023-08-08T00:04:30;100328.06;;;12.89;86.74
58843;BME280;44614;54.356;10.100;2023-08-08T00:06:56;100313.22;;;12.90;86.18
58843;BME280;44614;54.356;10.100;2023-08-08T00:09:21;100310.88;;;12.82;86.10
58843;BME280;44614;54.356;10.100;2023-08-08T00:11:47;100226.28;;;12.32;85.92
58843;BME280;44614;54.356;10.100;2023-08-08T00:14:13;100305.38;;;12.82;85.21
58843;BME280;44614;54.356;10.100;2023-08-08T00:16:38;100305.94;;;12.84;84.76
58843;BME280;44614;54.356;10.100;2023-08-08T00:19:04;100308.34;;;12.81;84.77
58843;BME280;44614;54.356;10.100;2023-08-08T00:21:29;100308.03;;;12.77;84.08
58843;BME280;44614;54.356;10.100;2023-08-08T00:23:55;100301.63;;;12.72;83.71
58843;BME280;44614;54.356;10.100;2023-08-08T00:26:20;100293.84;;;12.68;83.51
58843;BME280;44614;54.356;10.100;2023-08-08T00:28:45;100309.72;;;12.78;83.42
58843;BME280;44614;54.356;10.100;2023-08-08T00:31:11;100291.41;;;12.72;82.40
58843;BME280;44614;54.356;10.100;2023-08-08T00:33:37;100296.94;;;12.72;81.83
58843;BME280;44614;54.356;10.100;2023-08-08T00:36:03;100299.94;;;12.71;81.72
58843;BME280;44614;54.356;10.100;2023-08-08T00:38:28;100307.94;;;12.72;81.04
58843;BME280;44614;54.356;10.100;2023-08-08T00:40:53;100302.94;;;12.69;80.83
58843;BME280;44614;54.356;10.100;2023-08-08T00:43:19;100298.53;;;12.68;79.83
58843;BME280;44614;54.356;10.100;2023-08-08T00:45:44;100301.28;;;12.68;79.41
58843;BME280;44614;54.356;10.100;2023-08-08T00:48:11;100293.50;;;12.65;79.51
58843;BME280;44614;54.356;10.100;2023-08-08T00:50:37;100271.22;;;12.50;79.68
58843;BME280;44614;54.356;10.100;2023-08-08T00:53:04;100279.56;;;12.55;79.58
58843;BME280;44614;54.356;10.100;2023-08-08T00:55:30;100293.75;;;12.63;80.00
58843;BME280;44614;54.356;10.100;2023-08-08T00:57:56;100298.19;;;12.64;80.44
58843;BME280;44614;54.356;10.100;2023-08-08T01:00:22;100296.41;;;12.58;80.35
58843;BME280;44614;54.356;10.100;2023-08-08T01:02:47;100301.91;;;12.58;80.72
58843;BME280;44614;54.356;10.100;2023-08-08T01:05:12;100293.91;;;12.57;80.51
58843;BME280;44614;54.356;10.100;2023-08-08T01:07:50;100300.53;;;12.56;80.40
58843;BME280;44614;54.356;10.100;2023-08-08T01:10:23;100290.00;;;12.53;80.43
58843;BME280;44614;54.356;10.100;2023-08-08T01:12:54;100318.94;;;12.55;79.38
58843;BME280;44614;54.356;10.100;2023-08-08T01:15:21;100304.34;;;12.55;79.59
58843;BME280;44614;54.356;10.100;2023-08-08T01:17:47;100299.91;;;12.54;79.60
58843;BME280;44614;54.356;10.100;2023-08-08T01:20:14;100300.19;;;12.52;79.70
58843;BME280;44614;54.356;10.100;2023-08-08T01:22:48;100299.00;;;12.48;79.34
58843;BME280;44614;54.356;10.100;2023-08-08T01:25:16;100282.88;;;12.40;78.12
58843;BME280;44614;54.356;10.100;2023-08-08T01:27:41;100325.28;;;12.39;78.33
58843;BME280;44614;54.356;10.100;2023-08-08T01:30:08;100282.72;;;12.47;78.05
58843;BME280;44614;54.356;10.100;2023-08-08T01:32:34;100281.31;;;12.44;77.91
58843;BME280;44614;54.356;10.100;2023-08-08T01:34:59;100279.75;;;12.48;77.49
58843;BME280;44614;54.356;10.100;2023-08-08T01:37:44;100279.75;;;12.48;77.07
58843;BME280;44614;54.356;10.100;2023-08-08T01:40:15;100284.38;;;12.48;78.21
58843;BME280;44614;54.356;10.100;2023-08-08T01:42:43;100219.63;;;12.11;78.08
58843;BME280;44614;54.356;10.100;2023-08-08T01:45:10;100277.69;;;12.43;77.75
58843;BME280;44614;54.356;10.100;2023-08-08T01:47:36;100276.53;;;12.39;78.16
58843;BME280;44614;54.356;10.100;2023-08-08T01:50:02;100276.88;;;12.43;78.04
58843;BME280;44614;54.356;10.100;2023-08-08T01:52:28;100269.44;;;12.43;78.70
58843;BME280;44614;54.356;10.100;2023-08-08T01:54:53;100275.56;;;12.46;78.17
58843;BME280;44614;54.356;10.100;2023-08-08T01:57:20;100273.88;;;12.44;78.09
58843;BME280;44614;54.356;10.100;2023-08-08T01:59:47;100258.63;;;12.37;78.42
58843;BME280;44614;54.356;10.100;2023-08-08T02:02:13;100276.38;;;12.46;78.35
58843;BME280;44614;54.356;10.100;2023-08-08T02:04:38;100277.47;;;12.45;78.82
58843;BME280;44614;54.356;10.100;2023-08-08T02:07:04;100270.53;;;12.42;78.50
58843;BME280;44614;54.356;10.100;2023-08-08T02:09:30;100268.38;;;12.44;78.77
58843;BME280;44614;54.356;10.100;2023-08-08T02:11:56;100256.69;;;12.37;78.69
58843;BME280;44614;54.356;10.100;2023-08-08T02:14:21;100266.34;;;12.40;78.90
58843;BME280;44614;54.356;10.100;2023-08-08T02:16:47;100265.53;;;12.39;79.19
58843;BME280;44614;54.356;10.100;2023-08-08T02:19:12;100255.03;;;12.36;79.03
58843;BME280;44614;54.356;10.100;2023-08-08T02:21:38;100265.53;;;12.39;78.96
58843;BME280;44614;54.356;10.100;2023-08-08T02:24:03;100256.19;;;12.40;78.92
58843;BME280;44614;54.356;10.100;2023-08-08T02:26:30;100254.91;;;12.31;79.51
58843;BME280;44614;54.356;10.100;2023-08-08T02:28:56;100263.84;;;12.38;79.67
58843;BME280;44614;54.356;10.100;2023-08-08T02:31:21;100256.59;;;12.32;79.83
58843;BME280;44614;54.356;10.100;2023-08-08T02:33:48;100249.34;;;12.26;80.22
58843;BME280;44614;54.356;10.100;2023-08-08T02:36:14;100258.84;;;12.35;80.35
58843;BME280;44614;54.356;10.100;2023-08-08T02:38:40;100222.22;;;12.18;80.96
58843;BME280;44614;54.356;10.100;2023-08-08T02:41:05;100240.31;;;12.31;80.80
58843;BME280;44614;54.356;10.100;2023-08-08T02:43:30;100244.41;;;12.28;80.99
58843;BME280;44614;54.356;10.100;2023-08-08T02:45:56;100245.25;;;12.29;81.67
58843;BME280;44614;54.356;10.100;2023-08-08T02:48:21;100261.25;;;12.32;81.39
58843;BME280;44614;54.356;10.100;2023-08-08T02:50:47;100257.69;;;12.31;81.91
58843;BME280;44614;54.356;10.100;2023-08-08T02:53:12;100256.00;;;12.30;82.25
58843;BME280;44614;54.356;10.100;2023-08-08T02:55:43;100253.75;;;12.27;82.66
58843;BME280;44614;54.356;10.100;2023-08-08T02:58:08;100243.84;;;12.26;82.81
58843;BME280;44614;54.356;10.100;2023-08-08T03:00:34;100240.31;;;12.31;83.07
58843;BME280;44614;54.356;10.100;2023-08-08T03:03:00;100243.06;;;12.31;83.11
58843;BME280;44614;54.356;10.100;2023-08-08T03:05:26;100239.22;;;12.32;83.23
58843;BME280;44614;54.356;10.100;2023-08-08T03:07:52;100232.56;;;12.28;83.72
58843;BME280;44614;54.356;10.100;2023-08-08T03:10:18;100231.50;;;12.29;84.59
58843;BME280;44614;54.356;10.100;2023-08-08T03:12:44;100224.63;;;12.31;86.38
58843;BME280;44614;54.356;10.100;2023-08-08T03:15:09;100227.50;;;12.36;85.77
58843;BME280;44614;54.356;10.100;2023-08-08T03:17:37;100220.63;;;12.39;85.83
58843;BME280;44614;54.356;10.100;2023-08-08T03:20:03;100224.47;;;12.38;85.96
58843;BME280;44614;54.356;10.100;2023-08-08T03:22:31;100222.63;;;12.43;85.87
58843;BME280;44614;54.356;10.100;2023-08-08T03:24:57;100220.97;;;12.42;87.15
58843;BME280;44614;54.356;10.100;2023-08-08T03:27:24;100233.50;;;12.50;86.82
58843;BME280;44614;54.356;10.100;2023-08-08T03:29:51;100225.22;;;12.50;86.75
58843;BME280;44614;54.356;10.100;2023-08-08T03:32:17;100217.47;;;12.47;85.69
58843;BME280;44614;54.356;10.100;2023-08-08T03:34:43;100208.88;;;12.43;85.74
58843;BME280;44614;54.356;10.100;2023-08-08T03:37:09;100234.09;;;12.52;88.66
58843;BME280;44614;54.356;10.100;2023-08-08T03:39:35;100223.06;;;12.52;87.05
58843;BME280;44614;54.356;10.100;2023-08-08T03:42:00;100214.97;;;12.46;88.05
58843;BME280;44614;54.356;10.100;2023-08-08T03:44:26;100234.66;;;12.54;87.88
58843;BME280;44614;54.356;10.100;2023-08-08T03:46:52;100232.81;;;12.60;88.29
58843;BME280;44614;54.356;10.100;2023-08-08T03:49:17;100217.28;;;12.54;87.43
58843;BME280;44614;54.356;10.100;2023-08-08T03:51:43;100210.63;;;12.50;88.63
58843;BME280;44614;54.356;10.100;2023-08-08T03:54:09;100225.06;;;12.57;89.01
58843;BME280;44614;54.356;10.100;2023-08-08T03:56:34;100192.59;;;12.42;88.46
58843;BME280;44614;54.356;10.100;2023-08-08T03:59:00;100221.47;;;12.56;88.38
58843;BME280;44614;54.356;10.100;2023-08-08T04:01:25;100223.47;;;12.61;88.12
58843;BME280;44614;54.356;10.100;2023-08-08T04:03:50;100230.16;;;12.65;88.50
58843;BME280;44614;54.356;10.100;2023-08-08T04:06:16;100200.78;;;12.54;87.77
58843;BME280;44614;54.356;10.100;2023-08-08T04:08:41;100224.63;;;12.65;87.71
58843;BME280;44614;54.356;10.100;2023-08-08T04:11:07;100229.06;;;12.66;87.77
58843;BME280;44614;54.356;10.100;2023-08-08T04:13:32;100224.63;;;12.65;88.50
58843;BME280;44614;54.356;10.100;2023-08-08T04:15:58;100214.38;;;12.60;88.17
58843;BME280;44614;54.356;10.100;2023-08-08T04:18:23;100214.03;;;12.57;88.63
58843;BME280;44614;54.356;10.100;2023-08-08T04:20:49;100219.63;;;12.62;88.76
58843;BME280;44614;54.356;10.100;2023-08-08T04:23:14;100216.81;;;12.57;91.31
58843;BME280;44614;54.356;10.100;2023-08-08T04:25:39;100202.38;;;12.50;91.28
58843;BME280;44614;54.356;10.100;2023-08-08T04:28:05;100216.81;;;12.57;90.79
58843;BME280;44614;54.356;10.100;2023-08-08T04:30:30;100224.63;;;12.65;90.94
58843;BME280;44614;54.356;10.100;2023-08-08T04:32:56;100214.13;;;12.62;90.75
58843;BME280;44614;54.356;10.100;2023-08-08T04:35:21;100231.38;;;12.74;90.81
58843;BME280;44614;54.356;10.100;2023-08-08T04:37:46;100219.78;;;12.72;92.47
58843;BME280;44614;54.356;10.100;2023-08-08T04:40:12;100178.91;;;12.47;92.64
58843;BME280;44614;54.356;10.100;2023-08-08T04:42:37;100224.53;;;12.77;93.07
58843;BME280;44614;54.356;10.100;2023-08-08T04:45:04;100214.94;;;12.79;94.64
58843;BME280;44614;54.356;10.100;2023-08-08T04:47:29;100213.84;;;12.80;95.18
58843;BME280;44614;54.356;10.100;2023-08-08T04:49:54;100187.56;;;12.73;95.47
58843;BME280;44614;54.356;10.100;2023-08-08T04:52:20;100223.28;;;12.84;97.91
58843;BME280;44614;54.356;10.100;2023-08-08T04:54:45;100219.34;;;12.80;97.48
58843;BME280;44614;54.356;10.100;2023-08-08T04:57:11;100215.34;;;12.88;96.30
58843;BME280;44614;54.356;10.100;2023-08-08T04:59:36;100228.13;;;12.94;97.34
58843;BME280;44614;54.356;10.100;2023-08-08T05:02:01;100212.13;;;12.96;96.73
58843;BME280;44614;54.356;10.100;2023-08-08T05:04:27;100208.13;;;13.04;96.55
58843;BME280;44614;54.356;10.100;2023-08-08T05:06:52;100210.38;;;13.07;96.15
58843;BME280;44614;54.356;10.100;2023-08-08T05:09:17;100221.53;;;13.17;95.99
58843;BME280;44614;54.356;10.100;2023-08-08T05:11:43;100203.75;;;13.08;96.39
58843;BME280;44614;54.356;10.100;2023-08-08T05:14:08;100216.53;;;13.14;97.11
58843;BME280;44614;54.356;10.100;2023-08-08T05:16:33;100222.38;;;13.17;97.90
58843;BME280;44614;54.356;10.100;2023-08-08T05:18:59;100222.03;;;13.14;97.03
58843;BME280;44614;54.356;10.100;2023-08-08T05:21:24;100214.88;;;13.13;95.95
58843;BME280;44614;54.356;10.100;2023-08-08T05:23:50;100214.28;;;13.11;97.15
58843;BME280;44614;54.356;10.100;2023-08-08T05:26:15;100218.69;;;13.12;97.35
58843;BME280;44614;54.356;10.100;2023-08-08T05:28:41;100210.97;;;13.09;96.59
58843;BME280;44614;54.356;10.100;2023-08-08T05:31:06;100219.84;;;13.16;97.32
58843;BME280;44614;54.356;10.100;2023-08-08T05:33:32;100209.34;;;13.13;96.89
58843;BME280;44614;54.356;10.100;2023-08-08T05:35:58;100219.50;;;13.29;96.20
58843;BME280;44614;54.356;10.100;2023-08-08T05:38:23;100208.41;;;13.46;95.33
58843;BME280;44614;54.356;10.100;2023-08-08T05:40:49;100209.50;;;13.67;94.75
58843;BME280;44614;54.356;10.100;2023-08-08T05:43:14;100208.72;;;13.72;94.86
58843;BME280;44614;54.356;10.100;2023-08-08T05:45:44;100207.28;;;13.69;96.21
58843;BME280;44614;54.356;10.100;2023-08-08T05:48:09;100180.78;;;13.68;94.90
58843;BME280;44614;54.356;10.100;2023-08-08T05:50:37;100211.81;;;13.80;94.82
58843;BME280;44614;54.356;10.100;2023-08-08T05:53:03;100209.22;;;13.69;95.54
58843;BME280;44614;54.356;10.100;2023-08-08T05:55:28;100230.50;;;13.73;94.96
58843;BME280;44614;54.356;10.100;2023-08-08T05:57:54;100201.06;;;13.79;95.30
58843;BME280;44614;54.356;10.100;2023-08-08T06:00:19;100190.84;;;13.79;94.68
58843;BME280;44614;54.356;10.100;2023-08-08T06:02:45;100197.31;;;13.90;94.14
58843;BME280;44614;54.356;10.100;2023-08-08T06:05:11;100224.13;;;13.95;93.73
58843;BME280;44614;54.356;10.100;2023-08-08T06:07:37;100219.72;;;13.94;93.60
58843;BME280;44614;54.356;10.100;2023-08-08T06:10:03;100218.44;;;14.06;94.58
58843;BME280;44614;54.356;10.100;2023-08-08T06:12:28;100222.69;;;14.19;94.16
58843;BME280;44614;54.356;10.100;2023-08-08T06:14:53;100220.25;;;14.23;93.31
58843;BME280;44614;54.356;10.100;2023-08-08T06:17:19;100180.59;;;14.02;93.15
58843;BME280;44614;54.356;10.100;2023-08-08T06:19:44;100226.00;;;14.16;94.23
58843;BME280;44614;54.356;10.100;2023-08-08T06:22:10;100233.34;;;14.05;94.68
58843;BME280;44614;54.356;10.100;2023-08-08T06:24:35;100208.09;;;13.92;95.48
58843;BME280;44614;54.356;10.100;2023-08-08T06:27:01;100205.84;;;13.88;97.65
58843;BME280;44614;54.356;10.100;2023-08-08T06:29:26;100196.41;;;13.57;98.25
58843;BME280;44614;54.356;10.100;2023-08-08T06:31:52;100218.78;;;13.61;98.90
58843;BME280;44614;54.356;10.100;2023-08-08T06:34:18;100204.31;;;13.49;100.00
58843;BME280;44614;54.356;10.100;2023-08-08T06:36:43;100211.16;;;13.46;100.00
58843;BME280;44614;54.356;10.100;2023-08-08T06:39:09;100202.66;;;13.48;100.00
58843;BME280;44614;54.356;10.100;2023-08-08T06:41:36;100213.41;;;13.71;100.00
58843;BME280;44614;54.356;10.100;2023-08-08T06:44:04;100205.13;;;13.71;100.00
58843;BME280;44614;54.356;10.100;2023-08-08T06:46:29;100209.28;;;13.74;100.00
58843;BME280;44614;54.356;10.100;2023-08-08T06:48:55;100215.97;;;13.78;100.00
58843;BME280;44614;54.356;10.100;2023-08-08T06:51:27;100206.81;;;13.77;99.25
58843;BME280;44614;54.356;10.100;2023-08-08T06:53:52;100208.44;;;13.73;99.68
58843;BME280;44614;54.356;10.100;2023-08-08T06:56:18;100202.88;;;13.95;100.00
58843;BME280;44614;54.356;10.100;2023-08-08T06:58:43;100196.47;;;13.89;100.00
58843;BME280;44614;54.356;10.100;2023-08-08T07:01:09;100158.03;;;13.83;100.00
58843;BME280;44614;54.356;10.100;2023-08-08T07:03:35;100168.38;;;14.30;100.00
58843;BME280;44614;54.356;10.100;2023-08-08T07:06:02;100187.88;;;14.87;99.63
58843;BME280;44614;54.356;10.100;2023-08-08T07:08:27;100186.31;;;15.02;97.45
58843;BME280;44614;54.356;10.100;2023-08-08T07:10:56;100189.75;;;15.24;96.95
58843;BME280;44614;54.356;10.100;2023-08-08T07:13:22;100180.69;;;15.39;95.32
58843;BME280;44614;54.356;10.100;2023-08-08T07:15:47;100177.13;;;15.54;95.99
58843;BME280;44614;54.356;10.100;2023-08-08T07:18:12;100172.13;;;15.51;94.62
58843;BME280;44614;54.356;10.100;2023-08-08T07:20:38;100177.09;;;15.44;95.63
58843;BME280;44614;54.356;10.100;2023-08-08T07:23:04;100143.78;;;15.18;96.17
58843;BME280;44614;54.356;10.100;2023-08-08T07:25:30;100175.91;;;15.24;96.68
58843;BME280;44614;54.356;10.100;2023-08-08T07:27:55;100182.44;;;15.03;97.14
58843;BME280;44614;54.356;10.100;2023-08-08T07:30:21;100172.16;;;14.93;98.15
58843;BME280;44614;54.356;10.100;2023-08-08T07:32:46;100163.22;;;14.76;98.46
58843;BME280;44614;54.356;10.100;2023-08-08T07:35:12;100147.63;;;14.54;99.03
58843;BME280;44614;54.356;10.100;2023-08-08T07:37:37;100165.56;;;14.57;99.77
58843;BME280;44614;54.356;10.100;2023-08-08T07:40:03;100156.88;;;14.80;99.80
58843;BME280;44614;54.356;10.100;2023-08-08T07:42:38;100162.31;;;15.18;98.58
58843;BME280;44614;54.356;10.100;2023-08-08T07:45:03;100170.06;;;15.16;96.68
58843;BME280;44614;54.356;10.100;2023-08-08T07:47:29;100155.66;;;15.08;97.64
58843;BME280;44614;54.356;10.100;2023-08-08T07:49:54;100170.31;;;15.09;97.93
58843;BME280;44614;54.356;10.100;2023-08-08T07:52:20;100175.31;;;15.17;97.71
58843;BME280;44614;54.356;10.100;2023-08-08T07:54:45;100168.16;;;15.21;97.81
58843;BME280;44614;54.356;10.100;2023-08-08T07:57:10;100174.25;;;15.28;97.17
58843;BME280;44614;54.356;10.100;2023-08-08T07:59:36;100178.44;;;15.36;96.41
58843;BME280;44614;54.356;10.100;2023-08-08T08:02:01;100174.97;;;15.71;95.93
58843;BME280;44614;54.356;10.100;2023-08-08T08:04:27;100163.69;;;16.14;94.00
58843;BME280;44614;54.356;10.100;2023-08-08T08:06:52;100156.75;;;16.42;92.98
58843;BME280;44614;54.356;10.100;2023-08-08T08:09:18;100160.88;;;16.70;92.75
58843;BME280;44614;54.356;10.100;2023-08-08T08:11:43;100147.81;;;16.86;90.13
58843;BME280;44614;54.356;10.100;2023-08-08T08:14:09;100147.13;;;17.24;90.72
58843;BME280;44614;54.356;10.100;2023-08-08T08:16:34;100144.06;;;17.36;90.12
58843;BME280;44614;54.356;10.100;2023-08-08T08:19:00;100141.09;;;17.12;89.78
58843;BME280;44614;54.356;10.100;2023-08-08T08:21:25;100142.28;;;16.86;90.42
58843;BME280;44614;54.356;10.100;2023-08-08T08:23:51;100152.03;;;16.57;90.47
58843;BME280;44614;54.356;10.100;2023-08-08T08:26:16;100145.69;;;16.42;91.97
58843;BME280;44614;54.356;10.100;2023-08-08T08:28:42;100178.09;;;16.31;91.20
58843;BME280;44614;54.356;10.100;2023-08-08T08:31:07;100171.72;;;16.00;91.09
58843;BME280;44614;54.356;10.100;2023-08-08T08:33:33;100170.88;;;15.84;92.68
58843;BME280;44614;54.356;10.100;2023-08-08T08:35:58;100171.41;;;15.81;94.13
58843;BME280;44614;54.356;10.100;2023-08-08T08:38:24;100170.59;;;15.86;94.46
58843;BME280;44614;54.356;10.100;2023-08-08T08:40:50;100147.56;;;15.65;93.77
58843;BME280;44614;54.356;10.100;2023-08-08T08:43:19;100154.72;;;15.60;93.55
58843;BME280;44614;54.356;10.100;2023-08-08T08:45:49;100169.19;;;15.83;93.84
58843;BME280;44614;54.356;10.100;2023-08-08T08:48:16;100155.34;;;15.83;93.47
58843;BME280;44614;54.356;10.100;2023-08-08T08:50:43;100154.53;;;15.77;93.08
58843;BME280;44614;54.356;10.100;2023-08-08T08:53:11;100159.72;;;15.64;93.16
58843;BME280;44614;54.356;10.100;2023-08-08T08:55:37;100158.84;;;15.53;93.95
58843;BME280;44614;54.356;10.100;2023-08-08T08:58:03;100165.50;;;15.52;94.85
58843;BME280;44614;54.356;10.100;2023-08-08T09:00:30;100153.88;;;15.55;94.96
58843;BME280;44614;54.356;10.100;2023-08-08T09:02:55;100160.84;;;15.68;94.60
58843;BME280;44614;54.356;10.100;2023-08-08T09:05:21;100167.19;;;15.63;94.11
58843;BME280;44614;54.356;10.100;2023-08-08T09:07:48;100153.09;;;15.65;93.72
58843;BME280;44614;54.356;10.100;2023-08-08T09:10:15;100127.91;;;15.71;93.96
58843;BME280;44614;54.356;10.100;2023-08-08T09:12:41;100150.69;;;16.19;92.59
58843;BME280;44614;54.356;10.100;2023-08-08T09:15:07;100132.66;;;16.27;91.19
58843;BME280;44614;54.356;10.100;2023-08-08T09:17:32;100140.69;;;16.49;91.20
58843;BME280;44614;54.356;10.100;2023-08-08T09:19:58;100123.78;;;16.50;90.84
58843;BME280;44614;54.356;10.100;2023-08-08T09:22:24;100119.63;;;16.53;89.46
58843;BME280;44614;54.356;10.100;2023-08-08T09:24:50;100143.41;;;16.69;89.14
58843;BME280;44614;54.356;10.100;2023-08-08T09:27:16;100130.00;;;17.07;88.97
58843;BME280;44614;54.356;10.100;2023-08-08T09:29:41;100113.97;;;16.94;86.48
58843;BME280;44614;54.356;10.100;2023-08-08T09:32:07;100140.53;;;17.15;87.15
58843;BME280;44614;54.356;10.100;2023-08-08T09:34:33;100128.88;;;17.13;86.32
58843;BME280;44614;54.356;10.100;2023-08-08T09:36:59;100130.75;;;17.28;87.26
58843;BME280;44614;54.356;10.100;2023-08-08T09:39:25;100130.31;;;17.55;86.48
58843;BME280;44614;54.356;10.100;2023-08-08T09:41:51;100107.53;;;17.63;83.92
58843;BME280;44614;54.356;10.100;2023-08-08T09:44:23;100130.19;;;17.81;85.07
58843;BME280;44614;54.356;10.100;2023-08-08T09:46:50;100105.84;;;17.62;83.19
58843;BME280;44614;54.356;10.100;2023-08-08T09:49:15;100116.94;;;17.62;82.12
58843;BME280;44614;54.356;10.100;2023-08-08T09:51:41;100129.78;;;17.53;81.77
58843;BME280;44614;54.356;10.100;2023-08-08T09:54:07;100101.09;;;17.23;81.14
58843;BME280;44614;54.356;10.100;2023-08-08T09:56:34;100119.44;;;17.14;79.80
58843;BME280;44614;54.356;10.100;2023-08-08T09:59:00;100116.03;;;17.27;81.35
58843;BME280;44614;54.356;10.100;2023-08-08T10:01:26;100112.00;;;17.59;80.86
58843;BME280;44614;54.356;10.100;2023-08-08T10:03:52;100125.91;;;17.98;79.88
58843;BME280;44614;54.356;10.100;2023-08-08T10:06:18;100109.75;;;18.06;78.09
58843;BME280;44614;54.356;10.100;2023-08-08T10:08:45;100117.94;;;18.21;79.00
58843;BME280;44614;54.356;10.100;2023-08-08T10:11:10;100128.22;;;18.49;70.62
58843;BME280;44614;54.356;10.100;2023-08-08T10:13:37;100089.78;;;18.27;70.27
58843;BME280;44614;54.356;10.100;2023-08-08T10:16:08;100117.25;;;18.63;77.13
58843;BME280;44614;54.356;10.100;2023-08-08T10:18:34;100102.78;;;18.90;77.04
58843;BME280;44614;54.356;10.100;2023-08-08T10:21:00;100133.44;;;19.09;77.33
58843;BME280;44614;54.356;10.100;2023-08-08T10:23:38;100128.03;;;19.18;71.53
58843;BME280;44614;54.356;10.100;2023-08-08T10:26:05;100125.22;;;19.42;75.35
58843;BME280;44614;54.356;10.100;2023-08-08T10:28:32;100106.81;;;19.65;75.88
58843;BME280;44614;54.356;10.100;2023-08-08T10:31:01;100094.25;;;19.67;73.50
58843;BME280;44614;54.356;10.100;2023-08-08T10:33:41;100104.00;;;19.84;68.08
58843;BME280;44614;54.356;10.100;2023-08-08T10:36:08;100105.91;;;19.51;73.12
58843;BME280;44614;54.356;10.100;2023-08-08T10:38:46;100101.56;;;19.20;71.71
58843;BME280;44614;54.356;10.100;2023-08-08T10:41:18;100083.72;;;19.03;75.07
58843;BME280;44614;54.356;10.100;2023-08-08T10:43:49;100060.81;;;19.30;72.72
58843;BME280;44614;54.356;10.100;2023-08-08T10:46:23;100091.44;;;19.48;70.66
58843;BME280;44614;54.356;10.100;2023-08-08T10:48:51;100086.22;;;19.04;72.91
58843;BME280;44614;54.356;10.100;2023-08-08T10:51:17;100080.22;;;18.92;69.67
58843;BME280;44614;54.356;10.100;2023-08-08T10:53:43;100104.78;;;18.85;72.97
58843;BME280;44614;54.356;10.100;2023-08-08T10:56:12;100076.19;;;18.55;74.69
58843;BME280;44614;54.356;10.100;2023-08-08T10:58:40;100095.19;;;18.43;76.85
58843;BME280;44614;54.356;10.100;2023-08-08T11:01:06;100091.59;;;18.42;77.33
58843;BME280;44614;54.356;10.100;2023-08-08T11:03:35;100102.03;;;18.56;77.15
58843;BME280;44614;54.356;10.100;2023-08-08T11:06:02;100109.66;;;18.74;76.62
58843;BME280;44614;54.356;10.100;2023-08-08T11:08:30;100100.78;;;18.72;77.11
58843;BME280;44614;54.356;10.100;2023-08-08T11:10:56;100111.00;;;18.77;76.31
58843;BME280;44614;54.356;10.100;2023-08-08T11:13:21;100127.75;;;18.71;76.58
58843;BME280;44614;54.356;10.100;2023-08-08T11:15:47;100104.63;;;18.47;75.48
58843;BME280;44614;54.356;10.100;2023-08-08T11:18:13;100119.13;;;18.44;73.99
58843;BME280;44614;54.356;10.100;2023-08-08T11:20:38;100119.19;;;18.34;68.39
58843;BME280;44614;54.356;10.100;2023-08-08T11:23:04;100125.47;;;18.15;65.28
58843;BME280;44614;54.356;10.100;2023-08-08T11:25:31;100132.78;;;18.06;72.92
58843;BME280;44614;54.356;10.100;2023-08-08T11:27:57;100113.41;;;18.01;70.51
58843;BME280;44614;54.356;10.100;2023-08-08T11:30:24;100124.56;;;17.91;68.70
58843;BME280;44614;54.356;10.100;2023-08-08T11:32:55;100123.50;;;17.87;71.65
58843;BME280;44614;54.356;10.100;2023-08-08T11:35:22;100119.97;;;18.10;72.70
58843;BME280;44614;54.356;10.100;2023-08-08T11:37:49;100118.38;;;18.62;69.32
58843;BME280;44614;54.356;10.100;2023-08-08T11:40:17;100116.81;;;18.80;68.90
58843;BME280;44614;54.356;10.100;2023-08-08T11:42:43;100102.31;;;17.96;67.28
58843;BME280;44614;54.356;10.100;2023-08-08T11:45:11;100140.16;;;17.87;71.36
58843;BME280;44614;54.356;10.100;2023-08-08T11:47:38;100129.66;;;17.73;73.61
58843;BME280;44614;54.356;10.100;2023-08-08T11:50:05;100137.09;;;17.88;74.02
58843;BME280;44614;54.356;10.100;2023-08-08T11:52:32;100119.91;;;17.86;73.78
58843;BME280;44614;54.356;10.100;2023-08-08T11:54:58;100132.13;;;18.48;72.60
58843;BME280;44614;54.356;10.100;2023-08-08T11:57:26;100153.91;;;18.70;73.19
58843;BME280;44614;54.356;10.100;2023-08-08T11:59:55;100135.38;;;18.85;70.09
58843;BME280;44614;54.356;10.100;2023-08-08T12:02:23;100146.13;;;18.96;70.59
58843;BME280;44614;54.356;10.100;2023-08-08T12:04:49;100161.84;;;19.30;61.55
58843;BME280;44614;54.356;10.100;2023-08-08T12:07:14;100171.22;;;19.58;67.35
58843;BME280;44614;54.356;10.100;2023-08-08T12:09:42;100146.84;;;19.88;63.66
58843;BME280;44614;54.356;10.100;2023-08-08T12:12:08;100155.63;;;19.81;62.34
58843;BME280;44614;54.356;10.100;2023-08-08T12:14:42;100143.56;;;19.24;63.55
58843;BME280;44614;54.356;10.100;2023-08-08T12:17:09;100159.84;;;18.88;67.29
58843;BME280;44614;54.356;10.100;2023-08-08T12:19:35;100164.78;;;18.67;69.27
58843;BME280;44614;54.356;10.100;2023-08-08T12:22:00;100171.44;;;18.37;70.63
58843;BME280;44614;54.356;10.100;2023-08-08T12:24:26;100115.63;;;17.54;71.45
58843;BME280;44614;54.356;10.100;2023-08-08T12:26:52;100162.16;;;18.17;72.24
58843;BME280;44614;54.356;10.100;2023-08-08T12:29:18;100145.72;;;18.50;71.33
58843;BME280;44614;54.356;10.100;2023-08-08T12:31:43;100144.44;;;18.95;70.56
58843;BME280;44614;54.356;10.100;2023-08-08T12:34:08;100141.69;;;19.38;68.52
58843;BME280;44614;54.356;10.100;2023-08-08T12:36:35;100128.00;;;19.66;67.55